Home > Products > Valid Products > TAF

000
FTUS45 KFGZ 240500
TAFFLG
TAF
KFLG 240520Z 2406/2506 VRB03KT P6SM FEW180
     FM241800 36014G24KT P6SM SKC
     FM250100 05012G20KT P6SM SKC=



000
FTUS45 KFGZ 240500
TAFINW
TAF
KINW 240520Z 2406/2506 28007KT P6SM FEW200
     FM242000 32018G28KT P6SM SKC
     FM250100 29009KT P6SM SKC=



000
FTUS45 KFGZ 240500
TAFPGA
TAF
KPGA 240520Z 2406/2506 VRB05KT P6SM SKC=



000
FTUS45 KFGZ 232300
TAFFLG
TAF
KFLG 232320Z 2400/2424 02010G18KT P6SM SKC
     FM240130 VRB03KT P6SM FEW180
     FM241700 01014G25KT P6SM SKC=



000
FTUS45 KFGZ 232300
TAFINW
TAF
KINW 232320Z 2400/2424 32018G28KT P6SM SKC
     FM240130 28007KT P6SM FEW200
     FM241900 33014G25KT P6SM SKC=



000
FTUS45 KFGZ 232300
TAFPGA
TAF
KPGA 232320Z 2400/2424 32010KT P6SM SKC
     FM240200 29008KT P6SM FEW200
     FM240500 VRB05KT P6SM SKC
     FM241900 31010G16KT P6SM SKC=



000
FTUS45 KFGZ 232100 AAA
TAFINW
TAF AMD
KINW 232102Z 2321/2418 33018G30KT P6SM SKC
     FM240130 VRB05KT P6SM SKC=



000
FTUS45 KFGZ 231700
TAFPGA
TAF
KPGA 231728Z 2318/2418 31010G18KT P6SM SCT070
     FM240100 VRB05KT P6SM SKC=



000
FTUS45 KFGZ 231700
TAFINW
TAF
KINW 231728Z 2318/2418 33015G25KT P6SM SKC
     FM240130 VRB05KT P6SM SKC=



000
FTUS45 KFGZ 231700
TAFFLG
TAF
KFLG 231728Z 2318/2418 03012G23KT P6SM SKC=



000
FTUS45 KFGZ 231600 AAA
TAFINW
TAF AMD
KINW 231601Z 2316/2412 34015G22KT P6SM SCT070
     FM240200 VRB05KT P6SM SKC=



000
FTUS45 KFGZ 231600 AAA
TAFINW
TAF AMD
KINW 231601Z 2316/2412 34015G22KT P6SM SCT070
     FM240200 VRB05KT P6SM SKC=



000
FTUS45 KFGZ 231100
TAFINW
TAF
KINW 231120Z 2312/2412 27011KT P6SM SCT060
     FM231700 31014G22KT P6SM SCT070
     FM240200 VRB05KT P6SM SKC=



000
FTUS45 KFGZ 231100
TAFPGA
TAF
KPGA 231120Z 2312/2412 31010G18KT P6SM SCT070
     FM240100 VRB05KT P6SM SKC=



000
FTUS45 KFGZ 231100
TAFFLG
TAF
KFLG 231120Z 2312/2412 25011G19KT P6SM SCT045
     FM231600 03013G22KT P6SM FEW040
     FM231800 04018G26KT P6SM FEW050
     FM240100 VRB05KT P6SM SKC=



000
FTUS45 KFGZ 230500
TAFINW
TAF
KINW 230520Z 2306/2406 22009KT P6SM SCT250
     FM231300 28011KT P6SM SCT040 SCT250
     FM231700 31014G22KT P6SM SCT250
     FM240200 VRB05KT P6SM SKC=



000
FTUS45 KFGZ 230500
TAFFLG
TAF
KFLG 230520Z 2306/2406 VRB05KT P6SM SCT250
     FM231200 28010G18KT P6SM SCT025 SCT250
     FM231600 04013G22KT P6SM FEW020 SCT250
     FM231800 04018G26KT P6SM SCT250
     FM240100 VRB05KT P6SM SKC=



000
FTUS45 KFGZ 230500
TAFPGA
TAF
KPGA 230520Z 2306/2406 30008KT P6SM SCT250
     FM230900 32010G18KT P6SM FEW070 SCT250
     FM240100 VRB05KT P6SM SKC=



000
FTUS45 KFGZ 230300 AAA
TAFINW
TAF AMD
KINW 230321Z 2303/2324 21009KT P6SM SCT250
     FM231300 29011KT P6SM SCT060
     FM231700 30012G22KT P6SM FEW060=



000
FTUS45 KFGZ 222300
TAFINW
TAF
KINW 222320Z 2300/2324 23013G20KT P6SM SCT250
     FM230100 24012KT P6SM SCT250
     FM231300 29011KT P6SM SCT060
     FM231700 30012G22KT P6SM FEW060=



000
FTUS45 KFGZ 222300
TAFFLG
TAF
KFLG 222320Z 2300/2324 24014G22KT P6SM BKN200
     FM230100 24010KT P6SM SCT200
     FM231300 28008G16KT P6SM FEW050 SCT250
     FM231600 02013G22KT P6SM FEW060 FEW250=



000
FTUS45 KFGZ 222300
TAFPGA
TAF
KPGA 222320Z 2300/2324 VRB05KT P6SM BKN200
     FM230800 29011G17KT P6SM SCT070
     FM231400 30010KT P6SM FEW070
     FM231800 36011KT P6SM SKC=



000
FTUS45 KFGZ 221700
TAFFLG
TAF
KFLG 221739Z 2218/2318 24012G18KT P6SM SCT250
     FM230100 23010KT P6SM SCT200
     FM231300 30008G16KT P6SM FEW050 SCT250
     FM231600 02012G22KT P6SM SCT250=



000
FTUS45 KFGZ 221700
TAFPGA
TAF
KPGA 221739Z 2218/2318 VRB05KT P6SM SCT250
     FM222000 25008G15KT P6SM SCT250
     FM230100 27009G16KT P6SM BKN200
     FM230700 29011G17KT P6SM SCT070
     FM231400 30010KT P6SM FEW070=



000
FTUS45 KFGZ 221700
TAFINW
TAF
KINW 221739Z 2218/2318 11004KT P6SM FEW250
     FM222000 23013G20KT P6SM SCT250
     FM230100 24010KT P6SM SCT250
     FM231300 29011KT P6SM SCT060=



000
FTUS45 KFGZ 221100
TAFINW
TAF
KINW 221120Z 2212/2312 VRB04KT P6SM FEW250
     FM222000 23013G20KT P6SM SCT250
     FM230100 24010KT P6SM BKN200
     FM231100 28011G17KT P6SM SCT045=



000
FTUS45 KFGZ 221100
TAFPGA
TAF
KPGA 221120Z 2212/2312 VRB05KT P6SM FEW250
     FM221900 24010G17KT P6SM SCT250
     FM230100 24010KT P6SM BKN200
     FM230700 29011G17KT P6SM SCT045=



000
FTUS45 KFGZ 221100
TAFFLG
TAF
KFLG 221120Z 2212/2312 VRB03KT P6SM FEW250
     FM221800 24012G18KT P6SM SCT250
     FM230100 23010KT P6SM BKN200
     FM230900 24012G20KT P6SM SCT025=



000
FTUS45 KFGZ 220500
TAFINW
TAF
KINW 220523Z 2206/2306 VRB04KT P6SM FEW100
     FM222000 23010KT P6SM SCT250=



000
FTUS45 KFGZ 220500
TAFFLG
TAF
KFLG 220523Z 2206/2306 00000KT P6SM FEW080
     FM221800 23012G18KT P6SM SCT070 SCT250
     FM230100 VRB05KT P6SM SCT050 BKN200=



000
FTUS45 KFGZ 220500
TAFPGA
TAF
KPGA 220523Z 2206/2306 VRB05KT P6SM FEW250
     FM222000 26007KT P6SM SCT250=



000
FTUS45 KFGZ 212300
TAFINW
TAF
KINW 212320Z 2200/2224 VRB04KT P6SM SCT100
     FM221930 27010G15KT P6SM FEW250=



000
FTUS45 KFGZ 212300
TAFPGA
TAF
KPGA 212320Z 2200/2224 VRB05KT P6SM SCT140
     FM222000 26007KT P6SM SCT250=



000
FTUS45 KFGZ 212300
TAFFLG
TAF
KFLG 212320Z 2200/2224 00000KT P6SM FEW080 SCT120
     FM221800 24010G16KT P6SM FEW250=



000
FTUS45 KFGZ 212000 AAA
TAFFLG
TAF AMD
KFLG 212014Z 2120/2218 20006KT P6SM SCT080 BKN100
     FM220100 VRB03KT P6SM SCT060 SCT100=



000
FTUS45 KFGZ 211700
TAFINW
TAF
KINW 211728Z 2118/2218 12006KT P6SM BKN140
     FM211900 VRB05KT P6SM SCT140 BKN200
     FM220200 VRB03KT P6SM SCT100
     FM220600 12006KT P6SM SKC=



000
FTUS45 KFGZ 211700
TAFPGA
TAF
KPGA 211728Z 2118/2218 VRB05KT P6SM SCT100 SCT150
     FM220100 VRB03KT P6SM FEW200=



000
FTUS45 KFGZ 211700
TAFFLG
TAF
KFLG 211728Z 2118/2218 20006KT P6SM SCT080 BKN100
      TEMPO 2120/2124 -SHSNRA BKN050
     FM220100 VRB03KT P6SM SCT060 SCT100=



000
FTUS45 KFGZ 211100
TAFFLG
TAF
KFLG 211140Z 2112/2212 VRB03KT P6SM SCT100 OVC200
     FM211600 19006KT P6SM SCT080 BKN100
      TEMPO 2118/2121 -SHSN BKN050
     FM220100 VRB03KT P6SM SCT050 SCT100=



000
FTUS45 KFGZ 211100
TAFPGA
TAF
KPGA 211140Z 2112/2212 VRB05KT P6SM BKN200
     FM220100 VRB03KT P6SM FEW110=



000
FTUS45 KFGZ 211100
TAFINW
TAF
KINW 211140Z 2112/2212 12006KT P6SM OVC200
     FM211830 VRB05KT P6SM SCT120 BKN200
     FM220200 VRB03KT P6SM SCT100=



    US Dept of Commerce
    National Oceanic and Atmospheric Administration
    National Weather Service
    1325 East West Highway
    Silver Spring, MD 20910
    Page Author: NWS Internet Services Team
Disclaimer
Information Quality
Credits
Glossary
Privacy Policy
Freedom of Information Act (FOIA)
About Us
Career Opportunities